createdAt,value
2023-03-28T00:01:21.575Z,55.62
2023-03-28T00:03:49.192Z,55.37
2023-03-28T00:06:18.683Z,54.95
2023-03-28T00:08:47.427Z,54.98
2023-03-28T00:11:20.047Z,55.50
2023-03-28T00:13:53.692Z,56.24
2023-03-28T00:16:21.677Z,56.21
2023-03-28T00:18:51.090Z,54.87
2023-03-28T00:21:24.017Z,55.63
2023-03-28T00:23:56.269Z,55.78
2023-03-28T00:26:27.176Z,55.98
2023-03-28T00:28:55.790Z,55.68
2023-03-28T00:31:24.198Z,56.37
2023-03-28T00:33:51.852Z,56.29
2023-03-28T00:36:23.085Z,55.44
2023-03-28T00:38:52.137Z,56.70
2023-03-28T00:41:22.024Z,55.87
2023-03-28T00:43:51.738Z,55.94
2023-03-28T00:46:23.103Z,56.04
2023-03-28T00:48:56.771Z,56.28
2023-03-28T00:51:26.389Z,55.66
2023-03-28T00:53:54.017Z,55.43
2023-03-28T00:56:23.300Z,56.03
2023-03-28T00:58:50.708Z,55.95
2023-03-28T01:01:19.720Z,56.27
2023-03-28T01:03:52.280Z,56.80
2023-03-28T01:06:21.602Z,57.11
2023-03-28T01:08:49.258Z,57.01
2023-03-28T01:11:16.741Z,56.27
2023-03-28T01:13:46.651Z,57.11
2023-03-28T01:16:14.430Z,58.75
2023-03-28T01:18:42.035Z,58.35
2023-03-28T01:21:31.324Z,59.14
2023-03-28T01:24:30.053Z,58.09
2023-03-28T01:27:09.569Z,58.29
2023-03-28T01:29:45.230Z,59.95
2023-03-28T01:32:37.128Z,60.68
2023-03-28T01:35:51.137Z,59.15
2023-03-28T01:38:23.698Z,58.58
2023-03-28T01:41:19.895Z,59.47
2023-03-28T01:43:54.302Z,60.70
2023-03-28T01:46:30.670Z,59.50
2023-03-28T01:49:16.704Z,60.41
2023-03-28T01:51:59.332Z,60.75
2023-03-28T01:55:05.305Z,62.55
2023-03-28T01:57:34.148Z,61.37
2023-03-28T02:00:21.655Z,62.04
2023-03-28T02:03:11.203Z,63.36
2023-03-28T02:05:39.084Z,61.96
2023-03-28T02:08:10.913Z,62.71
2023-03-28T02:10:40.387Z,63.63
2023-03-28T02:13:14.608Z,62.40
2023-03-28T02:15:42.910Z,64.10
2023-03-28T02:18:14.483Z,63.54
2023-03-28T02:20:43.717Z,64.11
2023-03-28T02:23:19.611Z,62.90
2023-03-28T02:25:48.309Z,63.54
2023-03-28T02:28:16.328Z,65.38
2023-03-28T02:30:45.601Z,63.80
2023-03-28T02:33:39.589Z,64.23
2023-03-28T02:36:16.349Z,64.77
2023-03-28T02:39:05.953Z,65.59
2023-03-28T02:41:58.382Z,65.67
2023-03-28T02:44:47.791Z,64.21
2023-03-28T02:47:23.908Z,65.02
2023-03-28T02:49:57.373Z,67.09
2023-03-28T02:52:56.030Z,66.46
2023-03-28T02:55:38.353Z,67.20
2023-03-28T02:58:10.953Z,66.73
2023-03-28T03:00:39.776Z,66.05
2023-03-28T03:03:11.679Z,68.08
2023-03-28T03:05:39.440Z,66.81
2023-03-28T03:08:07.459Z,67.53
2023-03-28T03:10:35.599Z,68.07
2023-03-28T03:13:03.269Z,66.93
2023-03-28T03:15:30.880Z,68.35
2023-03-28T03:17:58.876Z,68.16
2023-03-28T03:20:28.611Z,66.95
2023-03-28T03:22:56.686Z,68.70
2023-03-28T03:25:24.088Z,66.73
2023-03-28T03:27:52.221Z,67.06
2023-03-28T03:30:19.717Z,66.96
2023-03-28T03:32:48.649Z,67.43
2023-03-28T03:35:16.605Z,67.66
2023-03-28T03:37:43.971Z,68.64
2023-03-28T03:40:11.446Z,68.22
2023-03-28T03:42:39.843Z,67.94
2023-03-28T03:45:07.808Z,70.01
2023-03-28T03:47:35.490Z,68.39
2023-03-28T03:50:03.197Z,67.67
2023-03-28T03:52:33.026Z,67.94
2023-03-28T03:55:00.389Z,66.05
2023-03-28T03:57:28.215Z,68.43
2023-03-28T03:59:58.104Z,67.70
2023-03-28T04:02:26.356Z,68.82
2023-03-28T04:04:54.582Z,67.00
2023-03-28T04:07:22.282Z,65.41
2023-03-28T04:09:50.648Z,65.07
2023-03-28T04:12:18.741Z,66.06
2023-03-28T04:14:46.323Z,65.62
2023-03-28T04:17:16.278Z,65.14
2023-03-28T04:19:45.612Z,65.71
2023-03-28T04:22:13.561Z,66.38
2023-03-28T04:24:44.615Z,65.89
2023-03-28T04:27:13.892Z,65.28
2023-03-28T04:29:45.121Z,65.92
2023-03-28T04:32:21.220Z,65.77
2023-03-28T04:34:50.996Z,65.89
2023-03-28T04:37:19.319Z,65.91
2023-03-28T04:39:47.380Z,64.18
2023-03-28T04:42:25.992Z,64.75
2023-03-28T04:44:55.345Z,64.18
2023-03-28T04:47:23.461Z,65.23
2023-03-28T04:49:52.640Z,65.59
2023-03-28T04:52:20.897Z,65.07
2023-03-28T04:54:49.037Z,64.54
2023-03-28T04:57:16.493Z,65.65
2023-03-28T04:59:44.124Z,64.78
2023-03-28T05:02:12.168Z,65.63
2023-03-28T05:04:40.626Z,64.92
2023-03-28T05:07:08.226Z,64.70
2023-03-28T05:09:36.169Z,64.36
2023-03-28T05:12:03.863Z,64.09
2023-03-28T05:14:32.007Z,63.24
2023-03-28T05:17:00.748Z,63.04
2023-03-28T05:19:29.488Z,63.03
2023-03-28T05:21:57.112Z,63.68
2023-03-28T05:24:24.899Z,63.21
2023-03-28T05:26:53.561Z,63.94
2023-03-28T05:29:22.349Z,62.59
2023-03-28T05:31:50.818Z,62.94
2023-03-28T05:34:18.714Z,61.69
2023-03-28T05:36:46.406Z,61.42
2023-03-28T05:39:19.205Z,60.76
2023-03-28T05:41:46.685Z,60.50
2023-03-28T05:44:14.061Z,60.56
2023-03-28T05:46:43.844Z,59.60
2023-03-28T05:49:11.931Z,60.48
2023-03-28T05:51:39.515Z,60.04
2023-03-28T05:54:07.160Z,60.85
2023-03-28T05:56:35.910Z,61.31
2023-03-28T05:59:03.465Z,60.24
2023-03-28T06:01:31.428Z,60.71
2023-03-28T06:04:00.746Z,60.11
2023-03-28T06:06:28.730Z,60.53
2023-03-28T06:08:56.234Z,59.36
2023-03-28T06:11:23.903Z,59.47
2023-03-28T06:13:51.908Z,60.31
2023-03-28T06:16:19.393Z,59.84
2023-03-28T06:19:10.367Z,59.73
2023-03-28T06:21:38.246Z,59.56
2023-03-28T06:24:06.205Z,58.10
2023-03-28T06:26:34.102Z,59.01
2023-03-28T06:29:01.606Z,59.12
2023-03-28T06:31:30.175Z,58.31
2023-03-28T06:33:57.596Z,57.84
2023-03-28T06:36:25.609Z,57.22
2023-03-28T06:38:54.004Z,56.62
2023-03-28T06:41:21.581Z,57.40
2023-03-28T06:43:49.021Z,58.04
2023-03-28T06:46:30.799Z,57.08
2023-03-28T06:48:59.459Z,55.62
2023-03-28T06:51:29.309Z,56.70
2023-03-28T06:53:56.874Z,57.13
2023-03-28T06:56:24.596Z,56.47
2023-03-28T06:58:52.283Z,55.93
2023-03-28T07:01:20.848Z,56.24
2023-03-28T07:03:50.697Z,55.68
2023-03-28T07:06:19.879Z,56.03
2023-03-28T07:08:47.267Z,55.55
2023-03-28T07:11:14.978Z,55.47
2023-03-28T07:13:43.409Z,55.24
2023-03-28T07:16:12.474Z,53.15
2023-03-28T07:18:41.184Z,51.72
2023-03-28T07:21:10.678Z,52.00
2023-03-28T07:23:39.460Z,53.16
2023-03-28T07:26:08.220Z,53.63
2023-03-28T07:28:36.163Z,53.16
2023-03-28T07:31:04.766Z,53.02
2023-03-28T07:33:37.235Z,53.28
2023-03-28T07:36:14.730Z,53.11
2023-03-28T07:38:43.280Z,53.41
2023-03-28T07:41:11.011Z,54.13
2023-03-28T07:43:39.925Z,55.23
2023-03-28T07:46:08.935Z,55.25
2023-03-28T07:48:37.335Z,54.47
2023-03-28T07:51:06.580Z,54.72
2023-03-28T07:53:35.646Z,53.41
2023-03-28T07:56:04.292Z,52.93
2023-03-28T07:58:32.357Z,52.74
2023-03-28T08:01:06.056Z,51.37
2023-03-28T08:03:36.312Z,50.56
2023-03-28T08:06:13.475Z,51.79
2023-03-28T08:08:45.317Z,51.18
2023-03-28T08:11:14.033Z,51.23
2023-03-28T08:13:41.446Z,50.06
2023-03-28T08:16:10.153Z,49.10
2023-03-28T08:18:37.518Z,50.03
2023-03-28T08:21:05.570Z,49.48
2023-03-28T08:23:33.356Z,48.34
2023-03-28T08:26:06.440Z,49.05
2023-03-28T08:28:36.670Z,48.80
2023-03-28T08:31:14.354Z,49.02
2023-03-28T08:33:43.255Z,50.35
2023-03-28T08:36:15.034Z,50.29
2023-03-28T08:38:43.968Z,50.09
2023-03-28T08:41:26.709Z,50.34
2023-03-28T08:44:17.060Z,48.86
2023-03-28T08:46:45.387Z,48.86
2023-03-28T08:49:17.486Z,48.38
2023-03-28T08:52:05.561Z,47.01
2023-03-28T08:54:46.736Z,46.00
2023-03-28T08:57:35.547Z,46.58
2023-03-28T09:00:14.903Z,46.71
2023-03-28T09:02:43.068Z,46.97
2023-03-28T09:05:23.866Z,48.50
2023-03-28T09:08:00.481Z,50.21
2023-03-28T09:10:40.645Z,50.97
2023-03-28T09:13:20.875Z,50.43
2023-03-28T09:16:20.485Z,49.50
2023-03-28T09:19:36.866Z,49.68
2023-03-28T09:22:16.000Z,47.83
2023-03-28T09:24:54.831Z,48.95
2023-03-28T09:27:35.266Z,49.18
2023-03-28T09:30:17.171Z,49.73
2023-03-28T09:32:45.212Z,48.78
2023-03-28T09:35:31.032Z,51.10
2023-03-28T09:38:02.956Z,51.01
2023-03-28T09:40:34.100Z,52.61
2023-03-28T09:43:04.588Z,52.57
2023-03-28T09:45:51.562Z,52.24
2023-03-28T09:48:25.723Z,52.64
2023-03-28T09:50:54.232Z,53.65
2023-03-28T09:53:27.463Z,53.05
2023-03-28T09:56:04.253Z,53.35
2023-03-28T09:58:49.385Z,52.46
2023-03-28T10:01:31.911Z,51.82
2023-03-28T10:04:11.687Z,50.99
2023-03-28T10:06:40.845Z,48.14
2023-03-28T10:09:28.462Z,47.41
2023-03-28T10:11:57.731Z,46.71
2023-03-28T10:14:40.081Z,46.68
2023-03-28T10:17:38.242Z,44.51
2023-03-28T10:20:17.247Z,43.36
2023-03-28T10:22:45.834Z,43.61
2023-03-28T10:25:32.077Z,44.60
2023-03-28T10:28:00.611Z,42.61
2023-03-28T10:30:32.008Z,40.94
2023-03-28T10:33:18.025Z,41.29
2023-03-28T10:35:54.690Z,40.03
2023-03-28T10:38:22.961Z,40.08
2023-03-28T10:41:07.582Z,40.37
2023-03-28T10:43:41.763Z,40.55
2023-03-28T10:46:16.086Z,40.58
2023-03-28T10:48:53.712Z,43.63
2023-03-28T10:51:23.224Z,49.09
2023-03-28T10:54:06.745Z,51.53
2023-03-28T10:56:42.663Z,53.89
2023-03-28T10:59:17.208Z,53.01
2023-03-28T11:01:51.032Z,50.65
2023-03-28T11:04:37.246Z,47.57
2023-03-28T11:07:31.047Z,44.95
2023-03-28T11:10:14.445Z,45.84
2023-03-28T11:13:05.037Z,44.55
2023-03-28T11:15:40.007Z,43.61
2023-03-28T11:18:14.962Z,41.54
2023-03-28T11:21:07.286Z,41.21
2023-03-28T11:23:46.224Z,42.71
2023-03-28T11:26:43.883Z,44.03
2023-03-28T11:29:40.168Z,44.15
2023-03-28T11:32:19.683Z,44.75
2023-03-28T11:35:14.158Z,43.30
2023-03-28T11:38:10.299Z,42.75
2023-03-28T11:40:50.809Z,44.76
2023-03-28T11:43:28.361Z,45.30
2023-03-28T11:45:58.726Z,44.74
2023-03-28T11:48:33.938Z,45.26
2023-03-28T11:51:26.868Z,45.19
2023-03-28T11:54:07.490Z,45.18
2023-03-28T11:56:43.021Z,43.78
2023-03-28T11:59:31.371Z,43.46
2023-03-28T12:02:19.793Z,43.32
2023-03-28T12:04:59.084Z,39.21
2023-03-28T12:07:37.396Z,37.45
2023-03-28T12:10:18.872Z,38.14
2023-03-28T12:13:05.403Z,37.70
2023-03-28T12:15:48.051Z,37.56
2023-03-28T12:18:24.525Z,36.51
2023-03-28T12:21:00.610Z,35.25
2023-03-28T12:23:59.809Z,34.57
2023-03-28T12:26:42.670Z,34.01
2023-03-28T12:29:17.505Z,33.12
2023-03-28T12:31:56.430Z,32.20
2023-03-28T12:34:31.956Z,31.79
2023-03-28T12:37:14.435Z,31.50
2023-03-28T12:40:08.379Z,29.78
2023-03-28T12:42:36.372Z,30.01
2023-03-28T12:45:05.436Z,29.99
2023-03-28T12:47:34.916Z,30.99
2023-03-28T12:50:06.329Z,30.08
2023-03-28T12:52:38.229Z,29.98
2023-03-28T12:55:24.782Z,30.79
2023-03-28T12:57:54.572Z,30.03
2023-03-28T13:00:35.487Z,30.04
2023-03-28T13:03:37.344Z,29.46
2023-03-28T13:06:38.357Z,28.74
2023-03-28T13:09:47.413Z,27.76
2023-03-28T13:12:39.421Z,28.23
2023-03-28T13:15:16.242Z,28.56
2023-03-28T13:17:48.582Z,28.58
2023-03-28T13:20:15.895Z,29.30
2023-03-28T13:23:02.256Z,29.65
2023-03-28T13:25:39.061Z,30.58
2023-03-28T13:28:12.716Z,35.36
2023-03-28T13:30:41.753Z,41.93
2023-03-28T13:33:29.868Z,46.58
2023-03-28T13:36:00.532Z,49.66
2023-03-28T13:38:28.227Z,49.21
2023-03-28T13:40:59.754Z,48.98
2023-03-28T13:43:47.333Z,48.88
2023-03-28T13:46:16.322Z,48.91
2023-03-28T13:49:00.870Z,48.30
2023-03-28T13:51:31.366Z,47.41
2023-03-28T13:53:59.012Z,46.91
2023-03-28T13:56:29.590Z,44.31
2023-03-28T13:58:57.046Z,36.30
2023-03-28T14:01:34.670Z,34.38
2023-03-28T14:04:02.444Z,34.32
2023-03-28T14:06:30.456Z,35.36
2023-03-28T14:09:00.524Z,35.77
2023-03-28T14:11:39.937Z,37.32
2023-03-28T14:14:12.328Z,36.52
2023-03-28T14:16:42.054Z,36.90
2023-03-28T14:19:09.484Z,38.04
2023-03-28T14:21:39.497Z,37.36
2023-03-28T14:24:13.234Z,38.18
2023-03-28T14:26:42.012Z,38.23
2023-03-28T14:29:14.346Z,37.93
2023-03-28T14:31:46.129Z,39.24
2023-03-28T14:34:38.750Z,38.94
2023-03-28T14:37:17.620Z,39.09
2023-03-28T14:39:45.771Z,39.52
2023-03-28T14:42:17.287Z,38.83
2023-03-28T14:44:46.630Z,35.33
2023-03-28T14:47:21.881Z,34.12
2023-03-28T14:49:49.529Z,34.70
2023-03-28T14:52:26.117Z,35.42
2023-03-28T14:54:53.742Z,36.82
2023-03-28T14:57:21.772Z,38.50
2023-03-28T14:59:49.207Z,41.14
2023-03-28T15:02:24.377Z,49.04
2023-03-28T15:04:52.178Z,53.93
2023-03-28T15:07:26.493Z,58.68
2023-03-28T15:10:10.870Z,60.96
2023-03-28T15:12:45.278Z,59.77
2023-03-28T15:15:17.706Z,56.91
2023-03-28T15:17:45.959Z,55.46
2023-03-28T15:20:18.014Z,53.21
2023-03-28T15:22:50.470Z,51.27
2023-03-28T15:25:17.847Z,53.63
2023-03-28T15:27:47.830Z,54.87
2023-03-28T15:30:16.888Z,55.41
2023-03-28T15:32:44.386Z,55.67
2023-03-28T15:35:40.500Z,54.46
2023-03-28T15:38:20.960Z,54.87
2023-03-28T15:40:50.050Z,53.57
2023-03-28T15:43:27.189Z,53.85
2023-03-28T15:45:56.884Z,53.77
2023-03-28T15:48:25.252Z,54.73
2023-03-28T15:50:53.642Z,53.09
2023-03-28T15:53:21.159Z,52.37
2023-03-28T15:55:49.156Z,52.40
2023-03-28T15:58:19.079Z,52.29
2023-03-28T16:00:58.552Z,52.05
2023-03-28T16:03:34.116Z,50.37
2023-03-28T16:06:12.753Z,50.45
2023-03-28T16:08:48.571Z,50.23
2023-03-28T16:11:21.560Z,51.93
2023-03-28T16:13:53.739Z,53.79
2023-03-28T16:16:27.919Z,52.69
2023-03-28T16:18:55.931Z,52.19
2023-03-28T16:21:23.384Z,52.44
2023-03-28T16:23:50.800Z,51.99
2023-03-28T16:26:18.424Z,53.39
2023-03-28T16:28:45.862Z,52.35
2023-03-28T16:31:14.466Z,52.36
2023-03-28T16:33:42.184Z,52.20
2023-03-28T16:36:11.584Z,50.13
2023-03-28T16:38:38.985Z,49.18
2023-03-28T16:41:07.048Z,48.81
2023-03-28T16:43:34.457Z,47.41
2023-03-28T16:46:02.108Z,46.98
2023-03-28T16:48:32.224Z,46.27
2023-03-28T16:51:04.807Z,45.30
2023-03-28T16:53:33.471Z,44.77
2023-03-28T16:56:01.376Z,44.25
2023-03-28T16:58:29.774Z,43.86
2023-03-28T17:00:57.573Z,43.63
2023-03-28T17:03:25.108Z,43.16
2023-03-28T17:05:52.634Z,43.53
2023-03-28T17:08:22.270Z,43.72
2023-03-28T17:10:49.708Z,44.29
2023-03-28T17:13:17.673Z,44.25
2023-03-28T17:15:45.931Z,45.25
2023-03-28T17:18:13.355Z,44.77
2023-03-28T17:20:40.877Z,44.86
2023-03-28T17:23:08.736Z,45.47
2023-03-28T17:25:48.291Z,45.21
2023-03-28T17:28:25.190Z,46.15
2023-03-28T17:30:52.925Z,45.89
2023-03-28T17:33:20.415Z,45.51
2023-03-28T17:35:48.201Z,45.58
2023-03-28T17:38:15.794Z,45.26
2023-03-28T17:40:47.160Z,45.11
2023-03-28T17:43:15.014Z,45.75
2023-03-28T17:45:42.383Z,44.65
2023-03-28T17:48:10.340Z,45.04
2023-03-28T17:50:38.840Z,45.57
2023-03-28T17:53:07.533Z,46.14
2023-03-28T17:55:35.085Z,46.12
2023-03-28T17:58:02.823Z,46.93
2023-03-28T18:00:31.518Z,45.68
2023-03-28T18:03:01.021Z,45.87
2023-03-28T18:05:30.646Z,46.70
2023-03-28T18:07:58.260Z,46.62
2023-03-28T18:10:26.299Z,46.84
2023-03-28T18:12:53.650Z,45.97
2023-03-28T18:15:21.300Z,47.09
2023-03-28T18:17:48.965Z,46.79
2023-03-28T18:20:17.255Z,46.69
2023-03-28T18:22:44.787Z,47.14
2023-03-28T18:25:12.428Z,46.18
2023-03-28T18:27:39.776Z,45.62
2023-03-28T18:30:08.364Z,47.02
2023-03-28T18:32:36.401Z,47.74
2023-03-28T18:35:07.064Z,47.98
2023-03-28T18:37:34.560Z,47.04
2023-03-28T18:40:03.066Z,47.88
2023-03-28T18:42:30.417Z,46.60
2023-03-28T18:44:57.955Z,47.15
2023-03-28T18:47:25.604Z,47.32
2023-03-28T18:49:52.984Z,46.99
2023-03-28T18:52:20.364Z,47.37
2023-03-28T18:54:49.228Z,47.53
2023-03-28T18:57:16.865Z,47.91
2023-03-28T18:59:44.409Z,47.87
2023-03-28T19:02:12.821Z,46.69
2023-03-28T19:04:40.230Z,46.77
2023-03-28T19:07:08.374Z,47.04
2023-03-28T19:09:36.153Z,47.43
2023-03-28T19:12:03.986Z,47.53
2023-03-28T19:14:31.317Z,46.96
2023-03-28T19:16:59.171Z,47.53
2023-03-28T19:19:27.197Z,46.70
2023-03-28T19:21:55.242Z,47.96
2023-03-28T19:24:23.435Z,48.10
2023-03-28T19:26:52.458Z,48.45
2023-03-28T19:29:19.847Z,49.27
2023-03-28T19:31:47.562Z,48.12
2023-03-28T19:34:16.402Z,49.06
2023-03-28T19:36:43.768Z,48.77
2023-03-28T19:39:11.385Z,49.39
2023-03-28T19:41:38.927Z,48.79
2023-03-28T19:44:06.267Z,50.04
2023-03-28T19:46:36.322Z,50.04
2023-03-28T19:49:06.353Z,48.71
2023-03-28T19:51:34.041Z,50.04
2023-03-28T19:54:01.557Z,48.85
2023-03-28T19:56:29.034Z,49.28
2023-03-28T19:58:56.871Z,48.83
2023-03-28T20:01:24.262Z,49.13
2023-03-28T20:03:53.372Z,48.81
2023-03-28T20:06:21.400Z,48.86
2023-03-28T20:08:48.906Z,48.59
2023-03-28T20:11:16.928Z,48.08
2023-03-28T20:13:44.401Z,48.96
2023-03-28T20:16:12.052Z,48.76
2023-03-28T20:18:39.712Z,48.62
2023-03-28T20:21:13.363Z,50.27
2023-03-28T20:23:41.131Z,48.92
2023-03-28T20:26:18.784Z,48.94
2023-03-28T20:28:50.379Z,48.49
2023-03-28T20:31:18.264Z,47.35
2023-03-28T20:33:46.203Z,48.54
2023-03-28T20:36:13.599Z,47.97
2023-03-28T20:38:40.992Z,47.41
2023-03-28T20:41:12.509Z,48.35
2023-03-28T20:43:47.260Z,48.22
2023-03-28T20:46:18.493Z,48.30
2023-03-28T20:48:46.936Z,48.55
2023-03-28T20:51:15.464Z,48.70
2023-03-28T20:53:48.427Z,47.53
2023-03-28T20:56:17.270Z,47.86
2023-03-28T20:58:45.257Z,47.69
2023-03-28T21:01:13.477Z,47.51
2023-03-28T21:03:48.310Z,49.24
2023-03-28T21:06:23.214Z,47.58
2023-03-28T21:08:51.989Z,47.84
2023-03-28T21:11:22.224Z,47.79
2023-03-28T21:13:49.935Z,47.76
2023-03-28T21:16:17.971Z,48.08
2023-03-28T21:18:45.753Z,48.43
2023-03-28T21:21:13.416Z,48.24
2023-03-28T21:23:41.178Z,48.23
2023-03-28T21:26:10.286Z,48.30
2023-03-28T21:28:37.648Z,48.67
2023-03-28T21:31:10.624Z,49.60
2023-03-28T21:33:38.181Z,49.78
2023-03-28T21:36:07.290Z,49.13
2023-03-28T21:38:35.484Z,48.77
2023-03-28T21:41:03.564Z,47.98
2023-03-28T21:43:31.422Z,48.56
2023-03-28T21:45:58.807Z,49.32
2023-03-28T21:48:26.311Z,47.95
2023-03-28T21:50:59.029Z,47.80
2023-03-28T21:53:30.831Z,48.43
2023-03-28T21:55:59.371Z,48.76
2023-03-28T21:58:28.429Z,49.27
2023-03-28T22:00:55.867Z,49.26
2023-03-28T22:03:23.811Z,48.74
2023-03-28T22:05:52.020Z,48.63
2023-03-28T22:08:19.501Z,47.63
2023-03-28T22:10:52.586Z,48.13
2023-03-28T22:13:20.364Z,47.88
2023-03-28T22:15:48.094Z,49.21
2023-03-28T22:18:15.683Z,49.50
2023-03-28T22:20:43.826Z,49.89
2023-03-28T22:23:11.584Z,50.47
2023-03-28T22:25:39.061Z,50.29
2023-03-28T22:28:08.407Z,49.46
2023-03-28T22:30:37.301Z,50.27
2023-03-28T22:33:05.888Z,49.35
2023-03-28T22:35:33.679Z,49.86
2023-03-28T22:38:01.716Z,50.77
2023-03-28T22:40:29.197Z,50.67
2023-03-28T22:42:57.008Z,49.58
2023-03-28T22:45:26.444Z,49.94
2023-03-28T22:47:53.967Z,49.34
2023-03-28T22:50:22.452Z,50.57
2023-03-28T22:52:50.194Z,50.44
2023-03-28T22:55:17.773Z,50.17
2023-03-28T22:57:45.168Z,50.07
2023-03-28T23:00:13.339Z,50.27
2023-03-28T23:02:41.541Z,49.57
2023-03-28T23:05:09.368Z,49.88
2023-03-28T23:07:37.653Z,49.34
2023-03-28T23:10:06.407Z,49.18
2023-03-28T23:12:33.834Z,47.77
2023-03-28T23:15:01.453Z,48.72
2023-03-28T23:17:29.193Z,49.05
2023-03-28T23:19:56.690Z,48.61
2023-03-28T23:22:24.333Z,48.46
2023-03-28T23:24:51.672Z,48.52
2023-03-28T23:27:19.257Z,48.39
2023-03-28T23:29:46.949Z,47.99
2023-03-28T23:32:14.303Z,47.40
2023-03-28T23:34:41.669Z,47.78
2023-03-28T23:37:10.051Z,48.19
2023-03-28T23:39:38.223Z,48.34
2023-03-28T23:42:05.752Z,48.00
2023-03-28T23:44:34.133Z,47.90
2023-03-28T23:47:01.499Z,47.82
2023-03-28T23:49:28.874Z,47.88
2023-03-28T23:51:56.815Z,47.99
2023-03-28T23:54:25.852Z,47.24
2023-03-28T23:56:53.292Z,47.67
2023-03-28T23:59:21.787Z,47.23
